createdAt,value
2017-07-22T00:00:13.782Z,21.69
2017-07-22T00:01:14.483Z,21.76
2017-07-22T00:02:15.194Z,21.51
2017-07-22T00:03:16.156Z,21.57
2017-07-22T00:04:16.859Z,21.66
2017-07-22T00:05:17.559Z,21.69
2017-07-22T00:06:18.257Z,21.67
2017-07-22T00:07:18.954Z,21.64
2017-07-22T00:08:19.906Z,21.58
2017-07-22T00:09:20.608Z,21.50
2017-07-22T00:10:21.310Z,21.67
2017-07-22T00:11:22.013Z,21.76
2017-07-22T00:12:22.713Z,21.77
2017-07-22T00:13:23.674Z,21.80
2017-07-22T00:14:24.373Z,21.79
2017-07-22T00:15:25.075Z,21.79
2017-07-22T00:16:25.782Z,21.50
2017-07-22T00:17:26.492Z,21.61
2017-07-22T00:18:27.445Z,21.57
2017-07-22T00:19:28.145Z,21.40
2017-07-22T00:20:28.846Z,21.40
2017-07-22T00:21:29.551Z,21.37
2017-07-22T00:22:30.253Z,21.37
2017-07-22T00:23:31.201Z,21.39
2017-07-22T00:24:31.908Z,21.39
2017-07-22T00:25:32.607Z,21.39
2017-07-22T00:26:33.308Z,21.45
2017-07-22T00:27:34.012Z,21.15
2017-07-22T00:28:34.974Z,21.25
2017-07-22T00:29:35.675Z,20.96
2017-07-22T00:30:36.373Z,20.72
2017-07-22T00:31:37.075Z,20.87
2017-07-22T00:32:37.780Z,20.77
2017-07-22T00:33:38.732Z,20.82
2017-07-22T00:34:39.440Z,20.84
2017-07-22T00:35:40.137Z,20.93
2017-07-22T00:36:40.837Z,20.95
2017-07-22T00:37:41.541Z,20.88
2017-07-22T00:38:42.492Z,20.99
2017-07-22T00:39:43.196Z,20.96
2017-07-22T00:40:43.902Z,20.78
2017-07-22T00:41:44.603Z,20.90
2017-07-22T00:42:45.306Z,20.67
2017-07-22T00:43:46.305Z,20.69
2017-07-22T00:44:47.004Z,20.82
2017-07-22T00:45:47.707Z,20.59
2017-07-22T00:46:48.409Z,20.65
2017-07-22T00:47:49.111Z,20.56
2017-07-22T00:48:50.069Z,20.59
2017-07-22T00:49:50.768Z,20.58
2017-07-22T00:50:51.474Z,20.52
2017-07-22T00:51:52.175Z,20.48
2017-07-22T00:52:52.877Z,20.41
2017-07-22T00:53:53.831Z,20.48
2017-07-22T00:54:54.533Z,20.44
2017-07-22T00:55:55.238Z,20.51
2017-07-22T00:56:55.934Z,20.51
2017-07-22T00:57:56.639Z,20.50
2017-07-22T00:58:57.340Z,20.51
2017-07-22T00:59:58.042Z,20.48
2017-07-22T01:00:58.746Z,20.47
2017-07-22T01:01:59.466Z,20.31
2017-07-22T01:03:00.170Z,20.16
2017-07-22T01:04:01.121Z,20.34
2017-07-22T01:05:01.821Z,20.39
2017-07-22T01:06:02.520Z,20.37
2017-07-22T01:07:03.221Z,20.34
2017-07-22T01:08:03.920Z,20.32
2017-07-22T01:09:04.870Z,20.39
2017-07-22T01:10:05.571Z,20.43
2017-07-22T01:11:06.275Z,20.40
2017-07-22T01:12:06.977Z,20.39
2017-07-22T01:13:07.684Z,20.34
2017-07-22T01:14:08.637Z,20.29
2017-07-22T01:15:09.341Z,20.26
2017-07-22T01:16:10.045Z,20.37
2017-07-22T01:17:10.753Z,20.37
2017-07-22T01:18:11.456Z,20.22
2017-07-22T01:19:12.406Z,20.39
2017-07-22T01:20:13.108Z,20.25
2017-07-22T01:21:13.810Z,20.16
2017-07-22T01:22:14.509Z,20.03
2017-07-22T01:23:15.208Z,19.95
2017-07-22T01:24:16.157Z,20.02
2017-07-22T01:25:16.857Z,20.06
2017-07-22T01:26:17.563Z,20.03
2017-07-22T01:27:18.262Z,19.76
2017-07-22T01:28:18.962Z,19.49
2017-07-22T01:29:19.913Z,19.74
2017-07-22T01:30:20.616Z,19.82
2017-07-22T01:31:21.324Z,19.82
2017-07-22T01:32:22.030Z,19.49
2017-07-22T01:33:22.731Z,19.55
2017-07-22T01:34:23.684Z,19.52
2017-07-22T01:35:24.395Z,19.52
2017-07-22T01:36:25.097Z,19.48
2017-07-22T01:37:25.799Z,19.51
2017-07-22T01:38:26.497Z,19.55
2017-07-22T01:39:27.446Z,19.49
2017-07-22T01:40:28.155Z,19.56
2017-07-22T01:41:28.857Z,19.54
2017-07-22T01:42:29.557Z,19.45
2017-07-22T01:43:30.256Z,19.48
2017-07-22T01:44:31.206Z,19.49
2017-07-22T01:45:31.905Z,19.48
2017-07-22T01:46:32.605Z,19.33
2017-07-22T01:47:33.308Z,19.56
2017-07-22T01:48:34.011Z,19.55
2017-07-22T01:49:34.962Z,19.55
2017-07-22T01:50:35.662Z,19.55
2017-07-22T01:51:36.368Z,19.41
2017-07-22T01:52:37.068Z,19.33
2017-07-22T01:53:37.769Z,19.48
2017-07-22T01:54:38.723Z,19.40
2017-07-22T01:55:39.422Z,19.39
2017-07-22T01:56:40.126Z,19.37
2017-07-22T01:57:40.825Z,19.26
2017-07-22T01:58:41.529Z,19.24
2017-07-22T01:59:42.487Z,19.30
2017-07-22T02:00:43.186Z,19.26
2017-07-22T02:01:43.888Z,19.09
2017-07-22T02:02:44.600Z,19.15
2017-07-22T02:03:45.307Z,19.36
2017-07-22T02:04:46.259Z,19.33
2017-07-22T02:05:46.962Z,19.48
2017-07-22T02:06:47.664Z,19.26
2017-07-22T02:07:48.364Z,18.90
2017-07-22T02:08:49.061Z,18.89
2017-07-22T02:09:50.015Z,18.71
2017-07-22T02:10:50.715Z,18.84
2017-07-22T02:11:51.424Z,18.96
2017-07-22T02:12:52.124Z,19.18
2017-07-22T02:13:52.829Z,19.18
2017-07-22T02:14:53.529Z,19.34
2017-07-22T02:15:54.233Z,19.24
2017-07-22T02:16:54.934Z,19.34
2017-07-22T02:17:55.635Z,19.15
2017-07-22T02:18:56.335Z,19.07
2017-07-22T02:19:57.281Z,19.22
2017-07-22T02:20:57.981Z,19.24
2017-07-22T02:21:58.680Z,19.40
2017-07-22T02:22:59.378Z,19.48
2017-07-22T02:24:00.085Z,19.47
2017-07-22T02:25:01.037Z,19.37
2017-07-22T02:26:01.738Z,19.47
2017-07-22T02:27:02.440Z,19.39
2017-07-22T02:28:03.141Z,19.51
2017-07-22T02:29:03.845Z,19.55
2017-07-22T02:30:04.549Z,19.51
2017-07-22T02:31:05.255Z,19.55
2017-07-22T02:32:05.959Z,19.56
2017-07-22T02:33:06.661Z,19.56
2017-07-22T02:34:07.361Z,19.56
2017-07-22T02:35:08.316Z,19.56
2017-07-22T02:36:09.019Z,19.56
2017-07-22T02:37:09.723Z,19.51
2017-07-22T02:38:10.422Z,19.63
2017-07-22T02:39:11.124Z,19.63
2017-07-22T02:40:12.083Z,19.49
2017-07-22T02:41:12.790Z,19.59
2017-07-22T02:42:13.500Z,19.59
2017-07-22T02:43:14.199Z,19.52
2017-07-22T02:44:14.899Z,19.51
2017-07-22T02:45:15.846Z,19.48
2017-07-22T02:46:16.546Z,19.54
2017-07-22T02:47:17.272Z,19.54
2017-07-22T02:48:17.974Z,19.39
2017-07-22T02:49:18.676Z,19.40
2017-07-22T02:50:19.378Z,19.41
2017-07-22T02:51:20.086Z,19.41
2017-07-22T02:52:20.785Z,19.51
2017-07-22T02:53:21.491Z,19.44
2017-07-22T02:54:22.197Z,19.48
2017-07-22T02:55:23.146Z,19.47
2017-07-22T02:56:23.847Z,19.54
2017-07-22T02:57:24.547Z,19.47
2017-07-22T02:58:25.251Z,19.33
2017-07-22T02:59:25.951Z,19.36
2017-07-22T03:00:26.901Z,19.26
2017-07-22T03:01:27.602Z,19.24
2017-07-22T03:02:28.298Z,19.18
2017-07-22T03:03:28.993Z,19.24
2017-07-22T03:04:29.689Z,19.29
2017-07-22T03:05:30.637Z,19.22
2017-07-22T03:06:31.334Z,19.31
2017-07-22T03:07:32.034Z,19.40
2017-07-22T03:08:32.731Z,19.15
2017-07-22T03:09:33.438Z,18.78
2017-07-22T03:10:34.393Z,18.83
2017-07-22T03:11:35.093Z,18.86
2017-07-22T03:12:35.795Z,19.00
2017-07-22T03:13:36.490Z,19.00
2017-07-22T03:14:37.187Z,18.96
2017-07-22T03:15:38.145Z,19.00
2017-07-22T03:16:38.849Z,19.14
2017-07-22T03:17:39.551Z,19.21
2017-07-22T03:18:40.254Z,19.21
2017-07-22T03:19:40.953Z,19.16
2017-07-22T03:20:41.909Z,19.15
2017-07-22T03:21:42.613Z,19.19
2017-07-22T03:22:43.312Z,19.37
2017-07-22T03:23:44.016Z,19.24
2017-07-22T03:24:44.724Z,19.34
2017-07-22T03:25:45.678Z,19.36
2017-07-22T03:26:46.381Z,19.36
2017-07-22T03:27:47.089Z,19.29
2017-07-22T03:28:47.788Z,19.36
2017-07-22T03:29:48.489Z,19.24
2017-07-22T03:30:49.443Z,19.37
2017-07-22T03:31:50.143Z,19.39
2017-07-22T03:32:50.848Z,19.45
2017-07-22T03:33:51.546Z,19.41
2017-07-22T03:34:52.244Z,19.36
2017-07-22T03:35:53.200Z,19.45
2017-07-22T03:36:53.900Z,19.51
2017-07-22T03:37:54.600Z,19.55
2017-07-22T03:38:55.306Z,19.55
2017-07-22T03:39:56.011Z,19.55
2017-07-22T03:40:56.966Z,19.51
2017-07-22T03:41:57.669Z,19.51
2017-07-22T03:42:58.370Z,19.52
2017-07-22T03:43:59.068Z,19.56
2017-07-22T03:44:59.769Z,19.48
2017-07-22T03:46:00.722Z,19.47
2017-07-22T03:47:01.433Z,19.44
2017-07-22T03:48:02.132Z,19.45
2017-07-22T03:49:02.832Z,19.39
2017-07-22T03:50:03.536Z,19.49
2017-07-22T03:51:04.488Z,19.51
2017-07-22T03:52:05.187Z,19.45
2017-07-22T03:53:05.890Z,19.40
2017-07-22T03:54:06.591Z,19.49
2017-07-22T03:55:07.294Z,19.44
2017-07-22T03:56:08.248Z,19.44
2017-07-22T03:57:08.955Z,19.41
2017-07-22T03:58:09.656Z,19.45
2017-07-22T03:59:10.363Z,19.54
2017-07-22T04:00:11.067Z,19.45
2017-07-22T04:01:12.032Z,19.49
2017-07-22T04:02:12.738Z,19.44
2017-07-22T04:03:13.444Z,19.45
2017-07-22T04:04:14.147Z,19.40
2017-07-22T04:05:14.850Z,19.54
2017-07-22T04:06:15.806Z,19.52
2017-07-22T04:07:16.510Z,19.56
2017-07-22T04:08:17.220Z,19.62
2017-07-22T04:09:17.928Z,19.55
2017-07-22T04:10:18.633Z,19.58
2017-07-22T04:11:19.585Z,19.56
2017-07-22T04:12:20.290Z,19.54
2017-07-22T04:13:20.993Z,19.52
2017-07-22T04:14:21.700Z,19.52
2017-07-22T04:15:22.401Z,19.51
2017-07-22T04:16:23.358Z,19.56
2017-07-22T04:17:24.062Z,19.64
2017-07-22T04:18:24.768Z,19.62
2017-07-22T04:19:25.473Z,19.66
2017-07-22T04:20:26.178Z,19.63
2017-07-22T04:21:27.133Z,19.64
2017-07-22T04:22:27.838Z,19.62
2017-07-22T04:23:28.542Z,19.67
2017-07-22T04:24:29.244Z,19.55
2017-07-22T04:25:29.946Z,19.64
2017-07-22T04:26:30.905Z,19.63
2017-07-22T04:27:31.610Z,19.71
2017-07-22T04:28:32.313Z,19.73
2017-07-22T04:29:33.019Z,19.66
2017-07-22T04:30:33.724Z,19.73
2017-07-22T04:31:34.676Z,19.76
2017-07-22T04:32:35.389Z,19.76
2017-07-22T04:33:36.095Z,19.66
2017-07-22T04:34:36.802Z,19.64
2017-07-22T04:35:37.515Z,19.67
2017-07-22T04:36:38.471Z,19.71
2017-07-22T04:37:39.172Z,19.74
2017-07-22T04:38:39.879Z,19.66
2017-07-22T04:39:40.579Z,19.71
2017-07-22T04:40:41.281Z,19.73
2017-07-22T04:41:42.235Z,19.82
2017-07-22T04:42:42.942Z,19.76
2017-07-22T04:43:43.645Z,19.77
2017-07-22T04:44:44.349Z,19.71
2017-07-22T04:45:45.054Z,19.67
2017-07-22T04:46:46.011Z,19.74
2017-07-22T04:47:46.717Z,19.71
2017-07-22T04:48:47.423Z,19.77
2017-07-22T04:49:48.128Z,19.69
2017-07-22T04:50:48.830Z,19.73
2017-07-22T04:51:49.796Z,19.79
2017-07-22T04:52:50.502Z,19.71
2017-07-22T04:53:51.204Z,19.81
2017-07-22T04:54:51.905Z,19.71
2017-07-22T04:55:52.613Z,19.70
2017-07-22T04:56:53.572Z,19.81
2017-07-22T04:57:54.283Z,19.76
2017-07-22T04:58:54.992Z,19.86
2017-07-22T04:59:55.694Z,19.86
2017-07-22T05:00:56.401Z,19.89
2017-07-22T05:01:57.352Z,19.86
2017-07-22T05:02:58.054Z,19.86
2017-07-22T05:03:58.755Z,19.81
2017-07-22T05:04:59.455Z,19.77
2017-07-22T05:06:00.167Z,19.81
2017-07-22T05:07:01.123Z,19.84
2017-07-22T05:08:01.824Z,19.82
2017-07-22T05:09:02.531Z,19.81
2017-07-22T05:10:03.239Z,19.86
2017-07-22T05:11:03.944Z,19.86
2017-07-22T05:12:04.898Z,19.99
2017-07-22T05:13:05.599Z,19.82
2017-07-22T05:14:06.305Z,19.86
2017-07-22T05:15:07.009Z,19.88
2017-07-22T05:16:07.710Z,19.89
2017-07-22T05:17:08.663Z,19.94
2017-07-22T05:18:09.367Z,20.03
2017-07-22T05:19:10.070Z,20.00
2017-07-22T05:20:10.776Z,20.03
2017-07-22T05:21:11.483Z,20.02
2017-07-22T05:22:12.439Z,19.96
2017-07-22T05:23:13.138Z,20.06
2017-07-22T05:24:13.844Z,20.02
2017-07-22T05:25:14.551Z,20.06
2017-07-22T05:26:15.257Z,20.02
2017-07-22T05:27:15.960Z,20.07
2017-07-22T05:28:16.666Z,19.94
2017-07-22T05:29:17.370Z,19.99
2017-07-22T05:30:18.076Z,20.03
2017-07-22T05:31:18.779Z,20.18
2017-07-22T05:32:19.484Z,20.14
2017-07-22T05:33:20.189Z,20.11
2017-07-22T05:34:20.894Z,20.26
2017-07-22T05:35:21.597Z,20.19
2017-07-22T05:36:22.299Z,20.04
2017-07-22T05:37:23.256Z,20.09
2017-07-22T05:38:23.960Z,20.13
2017-07-22T05:39:24.658Z,20.11
2017-07-22T05:40:25.364Z,20.10
2017-07-22T05:41:26.070Z,20.03
2017-07-22T05:42:27.029Z,20.02
2017-07-22T05:43:27.735Z,20.04
2017-07-22T05:44:28.440Z,20.07
2017-07-22T05:45:29.141Z,20.04
2017-07-22T05:46:29.847Z,20.06
2017-07-22T05:47:30.803Z,20.04
2017-07-22T05:48:31.518Z,20.04
2017-07-22T05:49:32.229Z,20.10
2017-07-22T05:50:32.934Z,20.06
2017-07-22T05:51:33.642Z,20.21
2017-07-22T05:52:34.599Z,20.19
2017-07-22T05:53:35.305Z,20.04
2017-07-22T05:54:36.008Z,20.04
2017-07-22T05:55:36.719Z,20.14
2017-07-22T05:56:37.418Z,20.13
2017-07-22T05:57:38.373Z,20.03
2017-07-22T05:58:39.081Z,20.14
2017-07-22T05:59:39.786Z,20.16
2017-07-22T06:00:40.486Z,20.19
2017-07-22T06:01:41.190Z,20.25
2017-07-22T06:02:42.146Z,20.24
2017-07-22T06:03:42.853Z,20.19
2017-07-22T06:04:43.558Z,20.13
2017-07-22T06:05:44.265Z,20.24
2017-07-22T06:06:44.970Z,20.19
2017-07-22T06:07:45.941Z,20.11
2017-07-22T06:08:46.653Z,20.02
2017-07-22T06:09:47.358Z,20.21
2017-07-22T06:10:48.065Z,20.21
2017-07-22T06:11:48.773Z,20.25
2017-07-22T06:12:49.731Z,20.34
2017-07-22T06:13:50.448Z,20.22
2017-07-22T06:14:51.158Z,20.26
2017-07-22T06:15:51.872Z,20.28
2017-07-22T06:16:52.577Z,20.28
2017-07-22T06:17:53.531Z,20.24
2017-07-22T06:18:54.235Z,20.39
2017-07-22T06:19:54.955Z,20.31
2017-07-22T06:20:55.661Z,20.28
2017-07-22T06:21:56.366Z,20.21
2017-07-22T06:22:57.322Z,20.22
2017-07-22T06:23:58.027Z,20.36
2017-07-22T06:24:58.726Z,20.50
2017-07-22T06:25:59.435Z,20.47
2017-07-22T06:27:00.139Z,20.50
2017-07-22T06:28:01.090Z,20.55
2017-07-22T06:29:01.800Z,20.59
2017-07-22T06:30:02.505Z,20.51
2017-07-22T06:31:03.215Z,20.52
2017-07-22T06:32:03.921Z,20.59
2017-07-22T06:33:04.877Z,20.69
2017-07-22T06:34:05.584Z,20.52
2017-07-22T06:35:06.294Z,20.63
2017-07-22T06:36:07.004Z,20.59
2017-07-22T06:37:07.707Z,20.59
2017-07-22T06:38:08.661Z,20.62
2017-07-22T06:39:09.365Z,20.58
2017-07-22T06:40:10.074Z,20.74
2017-07-22T06:41:10.775Z,20.81
2017-07-22T06:42:11.484Z,20.78
2017-07-22T06:43:12.435Z,20.80
2017-07-22T06:44:13.140Z,20.87
2017-07-22T06:45:13.845Z,20.84
2017-07-22T06:46:14.552Z,20.80
2017-07-22T06:47:15.254Z,20.77
2017-07-22T06:48:16.207Z,20.75
2017-07-22T06:49:16.911Z,20.78
2017-07-22T06:50:17.619Z,20.96
2017-07-22T06:51:18.331Z,20.87
2017-07-22T06:52:19.037Z,20.70
2017-07-22T06:53:19.991Z,20.72
2017-07-22T06:54:20.696Z,20.56
2017-07-22T06:55:21.402Z,20.63
2017-07-22T06:56:22.110Z,20.56
2017-07-22T06:57:22.833Z,20.62
2017-07-22T06:58:23.789Z,20.62
2017-07-22T06:59:24.498Z,20.51
2017-07-22T07:00:25.207Z,20.44
2017-07-22T07:01:25.913Z,20.44
2017-07-22T07:02:26.622Z,20.55
2017-07-22T07:03:27.576Z,20.69
2017-07-22T07:04:28.278Z,20.77
2017-07-22T07:05:28.985Z,20.72
2017-07-22T07:06:29.692Z,20.74
2017-07-22T07:07:30.401Z,20.56
2017-07-22T07:08:31.367Z,20.51
2017-07-22T07:09:32.020Z,20.65
2017-07-22T07:10:32.768Z,20.63
2017-07-22T07:11:33.475Z,20.77
2017-07-22T07:12:34.179Z,20.65
2017-07-22T07:13:34.891Z,20.81
2017-07-22T07:14:35.605Z,20.82
2017-07-22T07:15:36.315Z,21.02
2017-07-22T07:16:37.028Z,21.02
2017-07-22T07:17:37.979Z,21.15
2017-07-22T07:18:38.685Z,20.99
2017-07-22T07:19:39.394Z,21.07
2017-07-22T07:20:40.105Z,21.20
2017-07-22T07:21:40.811Z,21.24
2017-07-22T07:22:41.775Z,21.20
2017-07-22T07:23:42.480Z,21.27
2017-07-22T07:24:43.195Z,21.32
2017-07-22T07:25:43.910Z,21.36
2017-07-22T07:26:44.614Z,21.43
2017-07-22T07:27:45.577Z,21.43
2017-07-22T07:28:46.290Z,21.46
2017-07-22T07:29:46.995Z,21.24
2017-07-22T07:30:47.703Z,21.22
2017-07-22T07:31:48.406Z,21.32
2017-07-22T07:32:49.114Z,21.18
2017-07-22T07:33:49.823Z,21.27
2017-07-22T07:34:50.538Z,21.15
2017-07-22T07:35:51.243Z,21.21
2017-07-22T07:36:51.946Z,20.97
2017-07-22T07:37:52.900Z,21.00
2017-07-22T07:38:53.617Z,20.88
2017-07-22T07:39:55.274Z,20.99
2017-07-22T07:40:55.982Z,21.05
2017-07-22T07:41:56.685Z,20.99
2017-07-22T07:42:57.642Z,21.17
2017-07-22T07:43:58.353Z,21.20
2017-07-22T07:44:59.053Z,21.24
2017-07-22T07:45:59.756Z,21.33
2017-07-22T07:47:00.463Z,21.42
2017-07-22T07:48:01.171Z,21.33
2017-07-22T07:49:01.880Z,21.18
2017-07-22T07:50:02.590Z,21.29
2017-07-22T07:51:03.294Z,21.35
2017-07-22T07:52:04.004Z,21.35
2017-07-22T07:53:04.711Z,21.05
2017-07-22T07:54:05.417Z,20.95
2017-07-22T07:55:06.120Z,21.09
2017-07-22T07:56:06.837Z,21.15
2017-07-22T07:57:07.542Z,21.21
2017-07-22T07:58:08.504Z,21.12
2017-07-22T07:59:09.207Z,21.03
2017-07-22T08:00:09.916Z,21.02
2017-07-22T08:01:10.631Z,21.11
2017-07-22T08:02:11.337Z,21.12
2017-07-22T08:03:12.296Z,21.18
2017-07-22T08:04:13.002Z,21.30
2017-07-22T08:05:13.706Z,21.37
2017-07-22T08:06:14.419Z,21.42
2017-07-22T08:07:15.134Z,21.36
2017-07-22T08:08:16.091Z,21.42
2017-07-22T08:09:16.796Z,21.54
2017-07-22T08:10:17.506Z,21.37
2017-07-22T08:11:18.211Z,21.48
2017-07-22T08:12:18.916Z,21.42
2017-07-22T08:13:19.868Z,21.50
2017-07-22T08:14:20.578Z,21.60
2017-07-22T08:15:21.286Z,21.73
2017-07-22T08:16:21.991Z,21.76
2017-07-22T08:17:22.695Z,21.79
2017-07-22T08:18:23.652Z,21.76
2017-07-22T08:19:24.352Z,21.85
2017-07-22T08:20:25.057Z,21.99
2017-07-22T08:21:25.766Z,22.11
2017-07-22T08:22:26.478Z,22.15
2017-07-22T08:23:27.438Z,22.22
2017-07-22T08:24:28.142Z,22.20
2017-07-22T08:25:28.845Z,22.30
2017-07-22T08:26:29.548Z,22.33
2017-07-22T08:27:30.253Z,22.54
2017-07-22T08:28:31.210Z,22.57
2017-07-22T08:29:31.915Z,22.69
2017-07-22T08:30:32.616Z,22.76
2017-07-22T08:31:33.317Z,22.75
2017-07-22T08:32:34.028Z,22.76
2017-07-22T08:33:34.990Z,22.96
2017-07-22T08:34:35.703Z,23.06
2017-07-22T08:35:36.413Z,23.02
2017-07-22T08:36:37.128Z,23.17
2017-07-22T08:37:37.838Z,23.00
2017-07-22T08:38:38.793Z,23.05
2017-07-22T08:39:39.500Z,23.17
2017-07-22T08:40:40.204Z,23.36
2017-07-22T08:41:40.902Z,23.10
2017-07-22T08:42:41.579Z,22.91
2017-07-22T08:43:42.569Z,22.88
2017-07-22T08:44:43.281Z,22.85
2017-07-22T08:45:43.987Z,22.81
2017-07-22T08:46:44.694Z,22.85
2017-07-22T08:47:45.412Z,22.88
2017-07-22T08:48:46.370Z,22.96
2017-07-22T08:49:47.078Z,22.93
2017-07-22T08:50:47.784Z,22.87
2017-07-22T08:51:48.487Z,23.05
2017-07-22T08:52:49.195Z,23.00
2017-07-22T08:53:50.149Z,23.00
2017-07-22T08:54:50.863Z,23.17
2017-07-22T08:55:51.572Z,23.21
2017-07-22T08:56:52.284Z,23.28
2017-07-22T08:57:52.988Z,23.47
2017-07-22T08:58:53.964Z,23.48
2017-07-22T08:59:54.673Z,23.24
2017-07-22T09:00:55.381Z,23.23
2017-07-22T09:01:56.092Z,23.47
2017-07-22T09:02:56.808Z,23.40
2017-07-22T09:03:57.765Z,23.28
2017-07-22T09:04:58.476Z,23.37
2017-07-22T09:05:59.180Z,23.34
2017-07-22T09:06:59.888Z,23.24
2017-07-22T09:08:00.591Z,23.25
2017-07-22T09:09:01.549Z,23.31
2017-07-22T09:10:02.261Z,23.31
2017-07-22T09:11:02.968Z,23.27
2017-07-22T09:12:03.682Z,23.32
2017-07-22T09:13:04.387Z,23.27
2017-07-22T09:14:05.342Z,23.31
2017-07-22T09:15:06.048Z,23.13
2017-07-22T09:16:06.753Z,23.24
2017-07-22T09:17:07.460Z,23.34
2017-07-22T09:18:08.174Z,23.23
2017-07-22T09:19:09.133Z,23.23
2017-07-22T09:20:09.842Z,23.25
2017-07-22T09:21:10.550Z,23.18
2017-07-22T09:22:11.258Z,23.06
2017-07-22T09:23:11.970Z,23.13
2017-07-22T09:24:12.925Z,23.23
2017-07-22T09:25:13.629Z,23.28
2017-07-22T09:26:14.345Z,23.32
2017-07-22T09:27:15.057Z,23.28
2017-07-22T09:28:15.764Z,23.23
2017-07-22T09:29:16.729Z,23.18
2017-07-22T09:30:17.441Z,23.23
2017-07-22T09:31:18.146Z,23.28
2017-07-22T09:32:18.850Z,23.27
2017-07-22T09:33:19.475Z,23.37
2017-07-22T09:34:20.510Z,23.41
2017-07-22T09:35:21.244Z,23.36
2017-07-22T09:36:21.949Z,23.41
2017-07-22T09:37:22.655Z,23.58
2017-07-22T09:38:23.362Z,23.69
2017-07-22T09:39:24.331Z,23.80
2017-07-22T09:40:25.038Z,23.91
2017-07-22T09:41:25.755Z,23.80
2017-07-22T09:42:26.689Z,23.92
2017-07-22T09:43:27.397Z,23.84
2017-07-22T09:44:28.358Z,23.77
2017-07-22T09:45:29.064Z,23.78
2017-07-22T09:46:29.767Z,23.83
2017-07-22T09:47:30.475Z,23.98
2017-07-22T09:48:31.182Z,23.93
2017-07-22T09:49:32.150Z,24.05
2017-07-22T09:50:32.859Z,23.95
2017-07-22T09:51:33.579Z,23.81
2017-07-22T09:52:34.299Z,24.02
2017-07-22T09:53:35.015Z,24.03
2017-07-22T09:54:35.978Z,23.99
2017-07-22T09:55:36.690Z,23.95
2017-07-22T09:56:37.392Z,23.95
2017-07-22T09:57:38.166Z,24.02
2017-07-22T09:58:38.878Z,23.81
2017-07-22T09:59:39.833Z,23.95
2017-07-22T10:00:40.554Z,23.78
2017-07-22T10:01:41.275Z,23.87
2017-07-22T10:02:41.987Z,23.74
2017-07-22T10:03:42.698Z,23.65
2017-07-22T10:04:43.657Z,23.78
2017-07-22T10:05:44.364Z,23.73
2017-07-22T10:06:45.070Z,23.93
2017-07-22T10:07:45.783Z,23.99
2017-07-22T10:08:46.504Z,24.05
2017-07-22T10:09:47.477Z,24.03
2017-07-22T10:10:48.188Z,24.08
2017-07-22T10:11:48.894Z,24.32
2017-07-22T10:12:49.601Z,24.33
2017-07-22T10:13:50.317Z,24.28
2017-07-22T10:14:51.276Z,24.20
2017-07-22T10:15:51.997Z,24.21
2017-07-22T10:16:52.704Z,24.36
2017-07-22T10:17:53.411Z,24.21
2017-07-22T10:18:54.118Z,24.28
2017-07-22T10:19:55.075Z,24.47
2017-07-22T10:20:55.788Z,24.55
2017-07-22T10:21:56.502Z,24.51
2017-07-22T10:22:57.211Z,24.60
2017-07-22T10:23:57.935Z,24.78
2017-07-22T10:24:58.893Z,24.65
2017-07-22T10:25:59.599Z,24.69
2017-07-22T10:27:00.312Z,24.69
2017-07-22T10:28:01.019Z,24.80
2017-07-22T10:29:01.722Z,24.78
2017-07-22T10:30:02.986Z,24.92
2017-07-22T10:31:03.695Z,25.08
2017-07-22T10:32:04.401Z,25.11
2017-07-22T10:33:05.113Z,25.22
2017-07-22T10:34:05.825Z,25.26
2017-07-22T10:35:06.788Z,25.33
2017-07-22T10:36:07.497Z,25.40
2017-07-22T10:37:08.206Z,25.51
2017-07-22T10:38:08.925Z,25.48
2017-07-22T10:39:09.632Z,25.32
2017-07-22T10:40:10.581Z,25.38
2017-07-22T10:41:11.296Z,25.46
2017-07-22T10:42:12.023Z,25.53
2017-07-22T10:43:12.734Z,25.44
2017-07-22T10:44:13.445Z,25.63
2017-07-22T10:45:14.151Z,25.62
2017-07-22T10:46:14.855Z,25.72
2017-07-22T10:47:15.557Z,25.73
2017-07-22T10:48:16.263Z,25.68
2017-07-22T10:49:16.969Z,25.72
2017-07-22T10:50:17.928Z,25.41
2017-07-22T10:51:18.634Z,25.48
2017-07-22T10:52:19.357Z,25.65
2017-07-22T10:53:20.075Z,25.73
2017-07-22T10:54:20.785Z,25.70
2017-07-22T10:55:21.743Z,25.81
2017-07-22T10:56:22.452Z,25.98
2017-07-22T10:57:23.158Z,26.07
2017-07-22T10:58:23.866Z,26.19
2017-07-22T10:59:24.570Z,26.22
2017-07-22T11:00:25.526Z,26.33
2017-07-22T11:01:26.244Z,26.40
2017-07-22T11:02:26.955Z,26.44
2017-07-22T11:03:27.664Z,26.70
2017-07-22T11:04:28.378Z,26.58
2017-07-22T11:05:29.336Z,26.59
2017-07-22T11:06:30.048Z,26.63
2017-07-22T11:07:30.762Z,26.83
2017-07-22T11:08:31.472Z,26.88
2017-07-22T11:09:32.182Z,26.96
2017-07-22T11:10:33.141Z,26.93
2017-07-22T11:11:33.851Z,26.96
2017-07-22T11:12:34.565Z,27.00
2017-07-22T11:13:35.275Z,26.92
2017-07-22T11:14:35.985Z,26.71
2017-07-22T11:15:36.938Z,26.81
2017-07-22T11:16:37.648Z,26.88
2017-07-22T11:17:38.361Z,26.99
2017-07-22T11:18:39.065Z,27.03
2017-07-22T11:19:39.765Z,27.15
2017-07-22T11:20:40.473Z,27.05
2017-07-22T11:21:41.187Z,26.92
2017-07-22T11:22:41.902Z,27.02
2017-07-22T11:23:42.613Z,27.11
2017-07-22T11:24:43.322Z,26.93
2017-07-22T11:25:44.285Z,26.97
2017-07-22T11:26:44.990Z,27.08
2017-07-22T11:27:45.700Z,27.05
2017-07-22T11:28:46.406Z,27.26
2017-07-22T11:29:47.137Z,27.27
2017-07-22T11:30:48.095Z,27.30
2017-07-22T11:31:48.802Z,27.07
2017-07-22T11:32:49.511Z,26.85
2017-07-22T11:33:50.222Z,27.00
2017-07-22T11:34:50.934Z,27.00
2017-07-22T11:35:51.957Z,27.02
2017-07-22T11:36:52.664Z,27.12
2017-07-22T11:37:53.378Z,27.02
2017-07-22T11:38:54.085Z,26.99
2017-07-22T11:39:54.793Z,27.21
2017-07-22T11:40:55.755Z,27.21
2017-07-22T11:41:56.462Z,27.21
2017-07-22T11:42:57.170Z,27.22
2017-07-22T11:43:57.878Z,27.22
2017-07-22T11:44:58.604Z,27.30
2017-07-22T11:45:59.611Z,27.48
2017-07-22T11:47:00.324Z,27.54
2017-07-22T11:48:01.048Z,27.64
2017-07-22T11:49:01.757Z,27.86
2017-07-22T11:50:02.470Z,27.89
2017-07-22T11:51:03.442Z,27.86
2017-07-22T11:52:04.158Z,27.92
2017-07-22T11:53:04.876Z,28.07
2017-07-22T11:54:05.581Z,28.01
2017-07-22T11:55:06.314Z,27.93
2017-07-22T11:56:07.276Z,28.14
2017-07-22T11:57:07.994Z,28.10
2017-07-22T11:58:08.706Z,28.08
2017-07-22T11:59:09.424Z,28.25
2017-07-22T12:00:10.135Z,28.33
2017-07-22T12:01:11.331Z,28.25
2017-07-22T12:02:12.046Z,28.27
2017-07-22T12:03:12.754Z,28.29
2017-07-22T12:04:13.465Z,28.48
2017-07-22T12:05:14.182Z,28.47
2017-07-22T12:06:15.150Z,28.56
2017-07-22T12:07:15.862Z,28.44
2017-07-22T12:08:16.584Z,28.23
2017-07-22T12:09:17.305Z,28.33
2017-07-22T12:10:18.012Z,28.22
2017-07-22T12:11:18.969Z,28.30
2017-07-22T12:12:19.682Z,28.27
2017-07-22T12:13:20.389Z,28.48
2017-07-22T12:14:21.095Z,28.45
2017-07-22T12:15:21.804Z,28.64
2017-07-22T12:16:22.771Z,28.72
2017-07-22T12:17:23.480Z,28.82
2017-07-22T12:18:24.193Z,28.86
2017-07-22T12:19:24.914Z,28.70
2017-07-22T12:20:25.619Z,28.57
2017-07-22T12:21:26.879Z,28.82
2017-07-22T12:22:27.590Z,28.81
2017-07-22T12:23:28.312Z,28.97
2017-07-22T12:24:29.026Z,29.04
2017-07-22T12:25:29.737Z,29.01
2017-07-22T12:26:30.699Z,29.02
2017-07-22T12:27:31.409Z,28.98
2017-07-22T12:28:32.117Z,29.05
2017-07-22T12:29:32.731Z,29.31
2017-07-22T12:30:33.534Z,29.27
2017-07-22T12:31:34.251Z,29.24
2017-07-22T12:32:34.959Z,29.10
2017-07-22T12:33:35.671Z,29.08
2017-07-22T12:34:36.382Z,29.08
2017-07-22T12:35:37.095Z,29.16
2017-07-22T12:36:38.058Z,29.23
2017-07-22T12:37:38.772Z,29.08
2017-07-22T12:38:39.481Z,29.31
2017-07-22T12:39:40.200Z,29.27
2017-07-22T12:40:40.912Z,29.41
2017-07-22T12:41:41.878Z,29.38
2017-07-22T12:42:42.589Z,29.39
2017-07-22T12:43:43.302Z,29.45
2017-07-22T12:44:44.017Z,29.36
2017-07-22T12:45:44.732Z,29.45
2017-07-22T12:46:45.694Z,29.56
2017-07-22T12:47:46.405Z,29.76
2017-07-22T12:48:47.111Z,29.73
2017-07-22T12:49:47.822Z,29.72
2017-07-22T12:50:48.531Z,29.84
2017-07-22T12:51:49.495Z,29.90
2017-07-22T12:52:50.215Z,29.68
2017-07-22T12:53:50.927Z,29.72
2017-07-22T12:54:51.635Z,29.81
2017-07-22T12:55:52.349Z,29.82
2017-07-22T12:56:53.318Z,29.97
2017-07-22T12:57:54.027Z,30.08
2017-07-22T12:58:54.731Z,29.82
2017-07-22T12:59:55.440Z,29.79
2017-07-22T13:00:56.150Z,30.18
2017-07-22T13:01:57.111Z,30.23